< < Back
Terminal Aerodrome Forecast


Current Version              Previous Versions:   1  2  3  4  5  6  7  8  9  

Terminal Aerodrome Forecast

656
FTUS42 KGSP 191120
TAFCLT
TAF
KCLT 191120Z 1912/2012 03005KT P6SM FEW250
     FM200100 08003KT P6SM FEW070 BKN250
     FM201000 06003KT P6SM -RA BKN070=

Latest METAR

855
SAUS70 KWBC 200000 RRB
MTRCLT
METAR KCLT 192352Z 00000KT 10SM BKN210 OVC250 11/M02 A3014 RMK AO2
SLP208 T01111022 10133 20078 53006


USA.gov is the U.S. government's official web portal to all federal, state and local government web resources and services.